»·PEaware :: FFT552 KSAN-KDEN

FFT552 :: KSAN-KDEN

FLIGHT INFORMATION

Flight Status: Arrived
Operator:
Frontier Airlines
More flights by this operator :: More flights under this callsign
Pilot: Hayden Y. (1870)
Aircraft: AIRBUS A319
(A319)
More flights by this aircraft type
Origin: KSAN San Diego Intl-Lindbergh
United States
Destination: KDEN Denver Intl
United States
More flights between these airports :: More routes between these airports
Route: ZZOOO2 MTBAL EED J236 TBC SHNPS TBARR1
File this flight plan on PilotEdge
Remarks: RMK / SIMBRIEF
Altitude:
(Current/Filed)
37,000ft
Speed:
(Current/Filed)
444kts
Departed: 20-May-20 07:58 AM
Arrived: 20-May-20 09:51 AM
Distance/Time
Traveled:
740nm/1:53
Distance/Time
To Go:
Arrived

Flight Plot

Page will automatically refresh every two minutes.

Flight plan parsing failed; only flown route is shown


Map Options




Map Legend


Flown Route
Filed Route
Departure Airport
Arrival Airport
Navaid (VOR, NDB)
Fix

Horizontal Profiles

Position Reports

Time Latitude Longitude Heading Altitude Ground
Speed
20-May-20 07:23 32.733821 -117.198137 207 29ft 0kts
20-May-20 07:24 32.733821 -117.198137 207 29ft 0kts
20-May-20 07:25 32.733821 -117.198137 207 29ft 0kts
20-May-20 07:26 32.733821 -117.198137 207 29ft 0kts
20-May-20 07:27 32.733821 -117.198137 207 29ft 0kts
20-May-20 07:28 32.733821 -117.198137 207 29ft 0kts
20-May-20 07:29 32.733821 -117.198137 207 29ft 0kts
20-May-20 07:30 32.733821 -117.198137 207 29ft 0kts
20-May-20 07:31 32.733821 -117.198137 207 29ft 0kts
20-May-20 07:32 32.733821 -117.198137 207 29ft 0kts
20-May-20 07:33 32.733821 -117.198137 207 29ft 0kts
20-May-20 07:34 32.733821 -117.198137 207 29ft 0kts
20-May-20 07:35 32.733821 -117.198137 207 29ft 0kts
20-May-20 07:36 32.733821 -117.198137 207 29ft 0kts
20-May-20 07:37 32.733821 -117.198137 207 29ft 0kts
20-May-20 07:38 32.733821 -117.198137 207 29ft 0kts
20-May-20 07:39 32.733821 -117.198137 207 29ft 0kts
20-May-20 07:40 32.733821 -117.198137 207 29ft 0kts
20-May-20 07:41 32.733821 -117.198137 207 29ft 0kts
20-May-20 07:42 32.733821 -117.198137 207 29ft 0kts
20-May-20 07:43 32.733821 -117.198137 207 29ft 0kts
20-May-20 07:44 32.733821 -117.198137 207 29ft 0kts
20-May-20 07:46 32.733821 -117.198137 207 29ft 0kts
20-May-20 07:47 32.733821 -117.198137 207 29ft 0kts
20-May-20 07:48 32.733821 -117.198137 207 29ft 0kts
20-May-20 07:49 32.734148 -117.197956 199 29ft 2kts
20-May-20 07:50 32.734551 -117.197984 106 29ft 0kts
20-May-20 07:51 32.734551 -117.197983 106 29ft 0kts
20-May-20 07:52 32.734551 -117.197983 106 29ft 0kts
20-May-20 07:53 32.734174 -117.196408 105 29ft 10kts
20-May-20 07:54 32.733033 -117.191710 106 29ft 17kts
20-May-20 07:55 32.731509 -117.185418 110 29ft 21kts
20-May-20 07:56 32.729726 -117.178095 104 29ft 23kts
20-May-20 07:57 32.730434 -117.177048 284 29ft 33kts
20-May-20 07:58 32.740351 -117.217109 287 1792ft 147kts
20-May-20 07:59 32.753621 -117.272497 287 3180ft 205kts
20-May-20 08:00 32.728725 -117.333774 190 5669ft 274kts
20-May-20 08:00 32.674934 -117.296360 130 8496ft 292kts
20-May-20 08:02 32.624895 -117.197596 93 11685ft 333kts
20-May-20 08:03 32.617097 -117.080717 95 14135ft 370kts
20-May-20 08:03 32.607077 -116.976816 95 16291ft 389kts
20-May-20 08:05 32.619211 -116.825275 69 19006ft 409kts
20-May-20 08:05 32.679633 -116.746452 16 20787ft 392kts
20-May-20 08:06 32.783209 -116.699160 16 22812ft 407kts
20-May-20 08:07 32.888359 -116.646632 15 23205ft 409kts
20-May-20 08:08 32.994981 -116.594588 16 24976ft 421kts
20-May-20 08:09 33.103576 -116.538251 17 26640ft 433kts
20-May-20 08:10 33.215441 -116.479731 17 28228ft 445kts
20-May-20 08:11 33.330370 -116.419364 17 29739ft 456kts
20-May-20 08:12 33.434375 -116.328450 50 31215ft 489kts
20-May-20 08:13 33.511677 -116.194215 49 33091ft 487kts
20-May-20 08:14 33.590966 -116.063274 50 34781ft 486kts
20-May-20 08:15 33.679005 -115.942023 41 36194ft 481kts
20-May-20 08:16 33.768963 -115.823008 42 37078ft 476kts
20-May-20 08:17 33.857603 -115.705242 42 37103ft 475kts
20-May-20 08:18 33.946305 -115.586845 42 37116ft 476kts
20-May-20 08:19 34.035068 -115.468017 42 37101ft 476kts
20-May-20 08:20 34.123838 -115.348812 42 37077ft 477kts
20-May-20 08:21 34.212519 -115.229293 43 37065ft 479kts
20-May-20 08:22 34.301298 -115.109242 43 37076ft 480kts
20-May-20 08:23 34.390412 -114.988327 43 37096ft 481kts
20-May-20 08:24 34.479594 -114.866914 43 37091ft 483kts
20-May-20 08:25 34.568932 -114.744810 43 37111ft 483kts
20-May-20 08:26 34.658157 -114.622494 44 37104ft 484kts
20-May-20 08:27 34.747320 -114.499789 44 37056ft 485kts
20-May-20 08:28 34.817655 -114.358138 60 37039ft 492kts
20-May-20 08:29 34.882086 -114.211234 58 37052ft 491kts
20-May-20 08:30 34.946458 -114.064388 59 37063ft 492kts
20-May-20 08:31 35.011145 -113.916795 60 37077ft 493kts
20-May-20 08:32 35.075445 -113.768819 60 37096ft 496kts
20-May-20 08:33 35.140112 -113.619695 60 37175ft 495kts
20-May-20 08:34 35.204209 -113.471073 60 37172ft 493kts
20-May-20 08:35 35.268011 -113.322612 60 37100ft 492kts
20-May-20 08:36 35.331586 -113.173859 61 37111ft 492kts
20-May-20 08:37 35.395050 -113.024901 61 37125ft 495kts
20-May-20 08:38 35.458746 -112.874635 61 37160ft 497kts
20-May-20 08:39 35.522035 -112.724525 62 37221ft 496kts
20-May-20 08:40 35.585290 -112.573998 62 37211ft 493kts
20-May-20 08:41 35.647961 -112.424197 63 37142ft 493kts
20-May-20 08:42 35.710447 -112.274114 63 37145ft 494kts
20-May-20 08:43 35.772979 -112.123053 63 37152ft 495kts
20-May-20 08:44 35.835210 -111.972233 63 37207ft 495kts
20-May-20 08:45 35.897273 -111.821065 63 37223ft 493kts
20-May-20 08:46 35.959001 -111.670150 64 37168ft 492kts
20-May-20 08:47 36.020547 -111.518670 64 37121ft 492kts
20-May-20 08:48 36.081872 -111.367255 65 37118ft 492kts
20-May-20 08:49 36.146737 -111.218109 59 37139ft 493kts
20-May-20 08:50 36.219868 -111.074762 60 37154ft 493kts
20-May-20 08:51 36.292067 -110.930573 60 37147ft 492kts
20-May-20 08:52 36.364515 -110.786106 61 37124ft 492kts
20-May-20 08:53 36.436548 -110.641379 61 37084ft 493kts
20-May-20 08:54 36.508432 -110.496654 61 37101ft 493kts
20-May-20 08:55 36.580351 -110.351030 62 37123ft 493kts
20-May-20 08:56 36.651980 -110.205445 62 37147ft 493kts
20-May-20 08:57 36.723427 -110.059579 62 37199ft 492kts
20-May-20 08:58 36.794466 -109.913957 63 37196ft 491kts
20-May-20 08:59 36.865255 -109.768051 63 37186ft 490kts
20-May-20 09:00 36.935771 -109.622237 64 37177ft 489kts
20-May-20 09:01 37.005835 -109.476675 64 37174ft 489kts
20-May-20 09:02 37.075945 -109.330441 64 37182ft 488kts
20-May-20 09:03 37.145289 -109.185049 64 37197ft 487kts
20-May-20 09:04 37.214702 -109.038935 65 37200ft 486kts
20-May-20 09:05 37.283746 -108.892895 65 37190ft 485kts
20-May-20 09:06 37.352259 -108.747456 65 37195ft 484kts
20-May-20 09:07 37.420663 -108.601541 65 37183ft 482kts
20-May-20 09:08 37.488401 -108.456265 66 37171ft 481kts
20-May-20 09:09 37.555775 -108.311422 66 37157ft 479kts
20-May-20 09:10 37.623042 -108.165962 66 37143ft 478kts
20-May-20 09:11 37.689777 -108.021004 66 37131ft 478kts
20-May-20 09:12 37.756584 -107.875316 66 37143ft 479kts
20-May-20 09:13 37.823028 -107.729697 66 37148ft 479kts
20-May-20 09:14 37.889564 -107.583275 66 37132ft 478kts
20-May-20 09:15 37.955560 -107.437390 66 37135ft 477kts
20-May-20 09:16 38.021449 -107.291131 67 37114ft 476kts
20-May-20 09:17 38.086361 -107.146278 67 37180ft 466kts
20-May-20 09:18 38.150940 -107.005116 60 37093ft 464kts
20-May-20 09:19 38.235267 -106.877177 55 37131ft 474kts
20-May-20 09:20 38.319508 -106.748160 56 37159ft 472kts
20-May-20 09:21 38.403683 -106.619936 56 37178ft 471kts
20-May-20 09:22 38.487068 -106.491746 56 37275ft 466kts
20-May-20 09:23 38.569219 -106.365230 56 37304ft 460kts
20-May-20 09:24 38.650940 -106.238661 56 37300ft 466kts
20-May-20 09:25 38.734504 -106.111008 55 34799ft 473kts
20-May-20 09:26 38.817371 -105.983895 55 32685ft 456kts
20-May-20 09:27 38.897175 -105.861007 55 30596ft 439kts
20-May-20 09:28 38.973611 -105.742223 55 28600ft 423kts
20-May-20 09:29 39.047548 -105.627078 55 26674ft 413kts
20-May-20 09:30 39.120182 -105.513469 55 24727ft 408kts
20-May-20 09:31 39.191607 -105.400926 56 22818ft 404kts
20-May-20 09:32 39.261944 -105.288713 55 20969ft 400kts
20-May-20 09:33 39.345010 -105.195178 36 19179ft 395kts
20-May-20 09:34 39.423660 -105.123777 39 17700ft 382kts
20-May-20 09:35 39.508098 -105.045006 37 16311ft 365kts
20-May-20 09:36 39.589442 -104.970667 37 15053ft 349kts
20-May-20 09:37 39.667901 -104.898309 37 13859ft 344kts
20-May-20 09:38 39.748457 -104.838350 4 12909ft 326kts
20-May-20 09:39 39.837655 -104.840416 359 11503ft 318kts
20-May-20 09:40 39.921773 -104.838862 359 11020ft 275kts
20-May-20 09:42 40.001234 -104.838444 359 11160ft 349kts
20-May-20 09:43 40.093702 -104.838408 359 10779ft 314kts
20-May-20 09:44 40.164941 -104.804738 67 10202ft 263kts
20-May-20 09:45 40.145561 -104.727135 137 8858ft 233kts
20-May-20 09:46 40.094167 -104.684204 180 8067ft 233kts
20-May-20 09:47 40.034412 -104.685260 181 7727ft 192kts
20-May-20 09:48 39.981492 -104.685878 181 7033ft 178kts
20-May-20 09:49 39.939330 -104.686350 181 6326ft 140kts
20-May-20 09:50 39.900884 -104.686777 182 5547ft 136kts
20-May-20 09:51 39.880543 -104.687074 181 5445ft 24kts
20-May-20 09:52 39.875192 -104.684976 178 5445ft 4kts
20-May-20 09:53 39.874007 -104.683774 182 5445ft 9kts
20-May-20 09:54 39.870663 -104.683759 180 5445ft 15kts
20-May-20 09:55 39.865341 -104.683819 180 5445ft 21kts
20-May-20 09:55 39.860522 -104.683835 181 5445ft 19kts
20-May-20 09:57 39.859337 -104.683868 181 5445ft 19kts
20-May-20 09:58 39.856499 -104.683927 180 5445ft 12kts
20-May-20 09:58 39.855975 -104.681389 95 5445ft 14kts
20-May-20 09:59 39.855792 -104.674413 99 5445ft 17kts
20-May-20 10:01 39.855301 -104.669749 90 5445ft 0kts
20-May-20 10:01 39.855301 -104.669748 90 5445ft 0kts
20-May-20 10:02 39.854318 -104.669947 235 5445ft 6kts
20-May-20 10:03 39.854170 -104.670223 231 5445ft 0kts
20-May-20 10:04 39.854170 -104.670223 231 5445ft 0kts

Navigation Log

Ident Type
Flight plan parsing failed, navigation log unavailable